createdAt,value
2022-11-15T00:00:58.922Z,10.33
2022-11-15T00:03:45.914Z,10.50
2022-11-15T00:06:33.075Z,11.23
2022-11-15T00:09:20.995Z,10.13
2022-11-15T00:12:08.105Z,10.73
2022-11-15T00:14:56.438Z,10.97
2022-11-15T00:17:43.088Z,9.87
2022-11-15T00:20:30.213Z,10.20
2022-11-15T00:23:17.532Z,9.47
2022-11-15T00:26:04.204Z,9.17
2022-11-15T00:28:53.707Z,9.47
2022-11-15T00:31:41.833Z,9.33
2022-11-15T00:34:28.658Z,9.47
2022-11-15T00:37:15.255Z,8.87
2022-11-15T00:40:02.413Z,9.00
2022-11-15T00:42:49.025Z,8.97
2022-11-15T00:45:38.738Z,9.00
2022-11-15T00:48:26.816Z,8.60
2022-11-15T00:51:13.810Z,9.17
2022-11-15T00:54:00.480Z,8.67
2022-11-15T00:56:47.346Z,8.83
2022-11-15T00:59:34.087Z,8.87
2022-11-15T01:02:20.682Z,8.90
2022-11-15T01:05:10.581Z,9.50
2022-11-15T01:07:58.601Z,9.33
2022-11-15T01:10:46.841Z,9.43
2022-11-15T01:13:34.723Z,9.63
2022-11-15T01:16:21.628Z,8.30
2022-11-15T01:19:08.312Z,9.93
2022-11-15T01:21:56.383Z,8.10
2022-11-15T01:24:43.148Z,8.60
2022-11-15T01:27:29.991Z,8.83
2022-11-15T01:30:17.777Z,9.03
2022-11-15T01:33:04.961Z,8.63
2022-11-15T01:35:51.880Z,8.97
2022-11-15T01:38:40.099Z,8.90
2022-11-15T01:41:29.261Z,9.27
2022-11-15T01:44:40.968Z,8.90
2022-11-15T01:47:30.614Z,8.83
2022-11-15T01:50:22.080Z,9.07
2022-11-15T01:53:09.020Z,9.30
2022-11-15T01:55:57.881Z,9.77
2022-11-15T01:58:47.381Z,9.33
2022-11-15T02:01:35.912Z,9.03
2022-11-15T02:04:27.067Z,9.03
2022-11-15T02:07:18.279Z,9.57
2022-11-15T02:10:10.276Z,8.30
2022-11-15T02:13:01.621Z,8.13
2022-11-15T02:16:02.779Z,7.17
2022-11-15T02:18:54.195Z,6.80
2022-11-15T02:21:46.272Z,6.97
2022-11-15T02:25:05.382Z,7.00
2022-11-15T02:28:18.505Z,6.80
2022-11-15T02:31:15.982Z,6.90
2022-11-15T02:34:10.547Z,7.80
2022-11-15T02:37:05.348Z,7.63
2022-11-15T02:39:58.731Z,7.73
2022-11-15T02:43:08.629Z,8.20
2022-11-15T02:46:04.453Z,8.10
2022-11-15T02:48:53.702Z,7.47
2022-11-15T02:51:41.798Z,7.50
2022-11-15T02:54:32.413Z,7.73
2022-11-15T02:57:24.399Z,7.17
2022-11-15T03:00:14.738Z,6.43
2022-11-15T03:03:15.968Z,6.13
2022-11-15T03:06:16.434Z,5.30
2022-11-15T03:09:09.937Z,5.50
2022-11-15T03:12:01.794Z,5.67
2022-11-15T03:14:58.140Z,5.30
2022-11-15T03:17:51.156Z,5.43
2022-11-15T03:20:39.001Z,5.53
2022-11-15T03:23:28.863Z,5.73
2022-11-15T03:26:18.329Z,5.30
2022-11-15T03:29:10.263Z,5.63
2022-11-15T03:32:02.473Z,5.67
2022-11-15T03:34:54.284Z,5.47
2022-11-15T03:37:46.383Z,5.13
2022-11-15T03:40:39.503Z,4.70
2022-11-15T03:43:32.813Z,5.20
2022-11-15T03:46:25.279Z,5.10
2022-11-15T03:49:15.581Z,4.60
2022-11-15T03:52:04.396Z,4.87
2022-11-15T03:54:57.233Z,4.70
2022-11-15T03:57:45.637Z,4.53
2022-11-15T04:00:32.632Z,4.70
2022-11-15T04:03:19.316Z,4.50
2022-11-15T04:06:06.451Z,5.07
2022-11-15T04:08:53.006Z,4.77
2022-11-15T04:11:39.784Z,4.20
2022-11-15T04:14:27.744Z,4.30
2022-11-15T04:17:14.347Z,4.03
2022-11-15T04:20:18.544Z,3.90
2022-11-15T04:23:25.712Z,4.00
2022-11-15T04:26:14.652Z,3.93
2022-11-15T04:29:24.736Z,3.90
2022-11-15T04:32:13.316Z,4.43
2022-11-15T04:35:01.079Z,4.50
2022-11-15T04:37:49.578Z,4.43
2022-11-15T04:40:37.123Z,4.03
2022-11-15T04:43:23.861Z,4.10
2022-11-15T04:46:10.844Z,3.70
2022-11-15T04:48:59.598Z,3.90
2022-11-15T04:51:46.955Z,4.27
2022-11-15T04:54:34.147Z,4.40
2022-11-15T04:57:21.204Z,4.60
2022-11-15T05:00:10.606Z,4.30
2022-11-15T05:03:15.848Z,4.47
2022-11-15T05:06:04.479Z,4.30
2022-11-15T05:08:52.371Z,4.43
2022-11-15T05:11:39.330Z,4.27
2022-11-15T05:14:26.214Z,3.97
2022-11-15T05:17:13.260Z,4.20
2022-11-15T05:20:00.090Z,3.97
2022-11-15T05:22:48.318Z,3.77
2022-11-15T05:25:35.471Z,4.20
2022-11-15T05:28:22.412Z,3.93
2022-11-15T05:31:11.666Z,4.10
2022-11-15T05:34:00.320Z,3.90
2022-11-15T05:36:47.578Z,4.07
2022-11-15T05:39:35.617Z,3.90
2022-11-15T05:42:22.715Z,4.10
2022-11-15T05:45:11.267Z,4.33
2022-11-15T05:48:01.143Z,4.50
2022-11-15T05:50:49.600Z,4.10
2022-11-15T05:53:38.714Z,4.20
2022-11-15T05:56:27.114Z,4.33
2022-11-15T05:59:14.605Z,5.77
2022-11-15T06:02:01.285Z,4.47
2022-11-15T06:04:48.481Z,3.90
2022-11-15T06:07:35.277Z,4.40
2022-11-15T06:10:22.719Z,4.67
2022-11-15T06:13:11.255Z,5.20
2022-11-15T06:15:58.265Z,4.47
2022-11-15T06:18:45.078Z,6.30
2022-11-15T06:21:31.886Z,5.50
2022-11-15T06:24:18.504Z,5.90
2022-11-15T06:27:05.315Z,5.50
2022-11-15T06:29:53.655Z,5.30
2022-11-15T06:32:40.352Z,5.43
2022-11-15T06:35:27.008Z,5.10
2022-11-15T06:38:13.938Z,4.80
2022-11-15T06:41:04.454Z,5.90
2022-11-15T06:43:51.466Z,5.27
2022-11-15T06:46:39.561Z,5.10
2022-11-15T06:49:26.345Z,5.57
2022-11-15T06:52:12.919Z,6.27
2022-11-15T06:55:00.112Z,14.07
2022-11-15T06:57:50.971Z,29.27
2022-11-15T07:00:38.016Z,7.20
2022-11-15T07:03:26.330Z,6.67
2022-11-15T07:06:13.416Z,4.87
2022-11-15T07:09:00.196Z,5.40
2022-11-15T07:11:47.022Z,7.00
2022-11-15T07:14:33.990Z,8.03
2022-11-15T07:17:20.720Z,5.20
2022-11-15T07:20:09.857Z,4.90
2022-11-15T07:23:02.942Z,4.70
2022-11-15T07:25:49.575Z,4.67
2022-11-15T07:28:37.018Z,5.13
2022-11-15T07:31:24.418Z,4.70
2022-11-15T07:34:11.656Z,5.03
2022-11-15T07:36:59.894Z,9.63
2022-11-15T07:39:46.973Z,21.07
2022-11-15T07:42:51.497Z,12.90
2022-11-15T07:45:44.619Z,13.37
2022-11-15T07:48:42.665Z,12.57
2022-11-15T07:51:31.205Z,14.47
2022-11-15T07:54:19.524Z,15.23
2022-11-15T07:57:08.122Z,12.40
2022-11-15T07:59:55.253Z,9.07
2022-11-15T08:02:42.608Z,7.87
2022-11-15T08:05:29.432Z,7.80
2022-11-15T08:08:16.044Z,6.13
2022-11-15T08:11:04.216Z,5.63
2022-11-15T08:13:51.424Z,5.27
2022-11-15T08:16:38.060Z,5.87
2022-11-15T08:19:24.806Z,5.40
2022-11-15T08:22:11.891Z,6.33
2022-11-15T08:24:58.764Z,6.07
2022-11-15T08:27:48.286Z,6.50
2022-11-15T08:30:38.873Z,5.10
2022-11-15T08:33:26.024Z,7.30
2022-11-15T08:36:17.735Z,7.40
2022-11-15T08:39:04.456Z,9.33
2022-11-15T08:41:51.449Z,7.77
2022-11-15T08:44:39.837Z,7.07
2022-11-15T08:47:27.393Z,14.40
2022-11-15T08:50:13.973Z,11.50
2022-11-15T08:53:06.980Z,11.40
2022-11-15T08:55:53.611Z,6.53
2022-11-15T08:58:40.885Z,6.53
2022-11-15T09:01:28.964Z,6.27
2022-11-15T09:04:17.211Z,6.70
2022-11-15T09:07:03.836Z,6.20
2022-11-15T09:09:51.001Z,6.03
2022-11-15T09:12:37.959Z,7.03
2022-11-15T09:15:24.874Z,8.17
2022-11-15T09:18:12.989Z,6.40
2022-11-15T09:21:00.703Z,5.47
2022-11-15T09:23:47.373Z,4.70
2022-11-15T09:26:34.005Z,5.47
2022-11-15T09:29:20.708Z,6.90
2022-11-15T09:32:07.374Z,6.40
2022-11-15T09:34:55.404Z,5.30
2022-11-15T09:37:42.449Z,4.80
2022-11-15T09:40:30.930Z,4.90
2022-11-15T09:43:30.993Z,4.67
2022-11-15T09:46:26.153Z,5.00
2022-11-15T09:49:16.048Z,5.10
2022-11-15T09:52:13.369Z,5.57
2022-11-15T09:54:54.897Z,5.13
2022-11-15T09:57:34.301Z,4.83
2022-11-15T10:00:44.302Z,4.60
2022-11-15T10:03:16.140Z,4.00
2022-11-15T10:05:47.286Z,4.13
2022-11-15T10:08:33.988Z,4.20
2022-11-15T10:13:56.676Z,5.50
2022-11-15T10:17:06.126Z,4.00
2022-11-15T10:19:41.171Z,4.20
2022-11-15T10:22:24.189Z,4.00
2022-11-15T10:25:12.110Z,4.10
2022-11-15T10:27:42.141Z,4.83
2022-11-15T10:30:15.095Z,4.70
2022-11-15T10:32:45.687Z,4.40
2022-11-15T10:35:23.042Z,4.37
2022-11-15T10:37:51.496Z,4.23
2022-11-15T10:40:23.970Z,4.40
2022-11-15T10:43:08.247Z,4.50
2022-11-15T10:45:36.845Z,4.20
2022-11-15T10:48:24.392Z,7.77
2022-11-15T10:50:54.569Z,6.03
2022-11-15T10:53:28.120Z,6.77
2022-11-15T10:56:02.573Z,3.70
2022-11-15T10:58:37.891Z,4.30
2022-11-15T11:01:14.538Z,5.00
2022-11-15T11:03:44.768Z,3.75
2022-11-15T11:06:15.307Z,3.83
2022-11-15T11:08:57.121Z,4.70
2022-11-15T11:11:27.226Z,4.68
2022-11-15T11:13:55.845Z,5.50
2022-11-15T11:16:46.860Z,4.47
2022-11-15T11:19:50.431Z,4.20
2022-11-15T11:22:26.763Z,4.55
2022-11-15T11:25:10.811Z,4.35
2022-11-15T11:27:48.292Z,3.95
2022-11-15T11:30:21.772Z,4.20
2022-11-15T11:33:05.946Z,3.63
2022-11-15T11:35:41.557Z,3.50
2022-11-15T11:38:22.099Z,3.50
2022-11-15T11:41:02.143Z,4.00
2022-11-15T11:43:43.485Z,4.20
2022-11-15T11:46:29.154Z,3.83
2022-11-15T11:49:06.380Z,3.80
2022-11-15T11:51:41.799Z,4.13
2022-11-15T11:54:19.404Z,3.93
2022-11-15T11:56:48.123Z,3.30
2022-11-15T11:59:26.594Z,3.20
2022-11-15T12:01:55.101Z,3.37
2022-11-15T12:04:31.281Z,3.20
2022-11-15T12:07:03.597Z,3.50
2022-11-15T12:09:37.073Z,5.17
2022-11-15T12:12:11.262Z,4.30
2022-11-15T12:14:48.779Z,4.07
2022-11-15T12:17:21.951Z,4.60
2022-11-15T12:19:50.762Z,3.00
2022-11-15T12:22:22.891Z,3.43
2022-11-15T12:24:55.812Z,2.90
2022-11-15T12:27:32.800Z,3.05
2022-11-15T12:30:05.815Z,3.22
2022-11-15T12:32:37.660Z,3.90
2022-11-15T12:35:21.807Z,2.90
2022-11-15T12:37:53.259Z,3.33
2022-11-15T12:40:36.498Z,3.10
2022-11-15T12:43:43.649Z,3.40
2022-11-15T12:46:23.916Z,5.50
2022-11-15T12:48:58.016Z,3.60
2022-11-15T12:52:05.764Z,3.60
2022-11-15T12:54:55.147Z,3.20
2022-11-15T12:57:40.399Z,3.90
2022-11-15T13:00:40.118Z,4.35
2022-11-15T13:03:30.757Z,4.53
2022-11-15T13:06:42.059Z,6.10
2022-11-15T13:09:47.687Z,5.20
2022-11-15T13:13:00.099Z,7.10
2022-11-15T13:16:01.323Z,5.63
2022-11-15T13:18:40.987Z,6.13
2022-11-15T13:21:41.889Z,3.87
2022-11-15T13:24:17.882Z,4.00
2022-11-15T13:26:46.338Z,3.60
2022-11-15T13:29:21.724Z,3.67
2022-11-15T13:31:50.814Z,3.77
2022-11-15T13:34:50.488Z,4.07
2022-11-15T13:37:33.478Z,5.00
2022-11-15T13:40:25.889Z,6.67
2022-11-15T13:42:54.154Z,8.80
2022-11-15T13:45:24.071Z,6.30
2022-11-15T13:47:58.123Z,6.23
2022-11-15T13:50:30.173Z,6.03
2022-11-15T13:53:03.478Z,6.00
2022-11-15T13:55:34.444Z,5.07
2022-11-15T13:58:07.270Z,5.20
2022-11-15T14:00:41.710Z,4.87
2022-11-15T14:03:20.685Z,5.33
2022-11-15T14:06:07.432Z,5.50
2022-11-15T14:08:37.051Z,4.20
2022-11-15T14:11:11.741Z,4.57
2022-11-15T14:13:40.134Z,5.30
2022-11-15T14:16:21.328Z,5.43
2022-11-15T14:18:53.775Z,5.00
2022-11-15T14:21:22.634Z,5.00
2022-11-15T14:23:51.639Z,5.70
2022-11-15T14:26:31.736Z,8.67
2022-11-15T14:29:27.103Z,7.50
2022-11-15T14:32:14.863Z,5.60
2022-11-15T14:34:43.275Z,5.90
2022-11-15T14:37:23.979Z,5.67
2022-11-15T14:39:53.143Z,5.00
2022-11-15T14:42:23.124Z,5.87
2022-11-15T14:44:51.639Z,12.20
2022-11-15T14:47:22.627Z,9.13
2022-11-15T14:49:50.937Z,8.43
2022-11-15T14:52:32.694Z,7.80
2022-11-15T14:55:03.336Z,6.10
2022-11-15T14:57:32.821Z,7.07
2022-11-15T15:00:01.131Z,7.17
2022-11-15T15:02:43.611Z,10.73
2022-11-15T15:05:17.527Z,15.37
2022-11-15T15:07:46.501Z,11.23
2022-11-15T15:13:05.191Z,10.43
2022-11-15T15:15:36.788Z,10.20
2022-11-15T15:18:09.407Z,10.87
2022-11-15T15:20:40.425Z,11.07
2022-11-15T15:23:16.812Z,10.70
2022-11-15T15:25:46.654Z,11.10
2022-11-15T15:28:15.383Z,11.33
2022-11-15T15:30:44.627Z,17.47
2022-11-15T15:33:14.237Z,15.87
2022-11-15T15:35:42.635Z,19.17
2022-11-15T15:38:13.634Z,16.47
2022-11-15T15:40:44.460Z,16.67
2022-11-15T15:43:12.781Z,15.87
2022-11-15T15:45:43.237Z,21.90
2022-11-15T15:48:15.776Z,20.67
2022-11-15T15:50:44.929Z,9.70
2022-11-15T15:53:14.708Z,10.23
2022-11-15T15:55:43.102Z,7.50
2022-11-15T15:58:11.431Z,7.17
2022-11-15T16:00:40.143Z,6.63
2022-11-15T16:03:08.432Z,11.20
2022-11-15T16:05:38.116Z,16.67
2022-11-15T16:08:07.729Z,15.00
2022-11-15T16:10:37.844Z,22.30
2022-11-15T16:13:06.152Z,26.57
2022-11-15T16:15:34.627Z,18.67
2022-11-15T16:18:04.028Z,15.27
2022-11-15T16:20:35.973Z,14.97
2022-11-15T16:23:09.454Z,10.27
2022-11-15T16:25:44.124Z,9.83
2022-11-15T16:28:21.161Z,6.80
2022-11-15T16:30:55.503Z,10.70
2022-11-15T16:33:25.465Z,13.07
2022-11-15T16:35:53.848Z,12.73
2022-11-15T16:38:23.797Z,10.30
2022-11-15T16:40:52.258Z,14.60
2022-11-15T16:43:20.699Z,12.77
2022-11-15T16:45:48.931Z,15.40
2022-11-15T16:48:25.207Z,6.67
2022-11-15T16:50:57.042Z,8.13
2022-11-15T16:53:27.073Z,8.10
2022-11-15T16:55:56.687Z,8.90
2022-11-15T16:58:25.422Z,10.23
2022-11-15T17:00:55.539Z,10.40
2022-11-15T17:03:24.567Z,11.03
2022-11-15T17:05:53.548Z,11.70
2022-11-15T17:08:24.159Z,11.47
2022-11-15T17:10:55.195Z,12.00
2022-11-15T17:13:23.453Z,14.60
2022-11-15T17:15:51.841Z,16.60
2022-11-15T17:18:21.475Z,16.97
2022-11-15T17:20:49.829Z,17.97
2022-11-15T17:23:18.872Z,19.13
2022-11-15T17:25:47.138Z,19.10
2022-11-15T17:28:17.272Z,22.47
2022-11-15T17:30:45.949Z,22.67
2022-11-15T17:33:14.554Z,28.57
2022-11-15T17:35:43.287Z,22.13
2022-11-15T17:38:11.710Z,20.30
2022-11-15T17:40:40.270Z,19.90
2022-11-15T17:43:08.632Z,24.50
2022-11-15T17:45:41.642Z,18.30
2022-11-15T17:48:09.976Z,17.53
2022-11-15T17:50:38.398Z,20.10
2022-11-15T17:53:06.620Z,22.27
2022-11-15T17:55:35.073Z,21.87
2022-11-15T17:58:03.769Z,20.40
2022-11-15T18:00:32.268Z,19.43
2022-11-15T18:03:02.200Z,19.70
2022-11-15T18:05:30.805Z,12.30
2022-11-15T18:07:59.228Z,13.50
2022-11-15T18:10:27.561Z,12.00
2022-11-15T18:12:55.752Z,17.77
2022-11-15T18:15:23.978Z,14.53
2022-11-15T18:17:59.701Z,13.90
2022-11-15T18:20:30.565Z,14.00
2022-11-15T18:22:58.780Z,10.80
2022-11-15T18:25:27.464Z,11.27
2022-11-15T18:27:55.730Z,11.60
2022-11-15T18:30:24.308Z,13.30
2022-11-15T18:32:53.853Z,11.30
2022-11-15T18:35:23.669Z,10.57
2022-11-15T18:37:55.562Z,10.90
2022-11-15T18:40:23.834Z,15.07
2022-11-15T18:42:54.945Z,16.03
2022-11-15T18:45:24.342Z,16.17
2022-11-15T18:47:54.053Z,15.83
2022-11-15T18:50:22.504Z,13.10
2022-11-15T18:52:50.983Z,14.20
2022-11-15T18:55:21.548Z,13.30
2022-11-15T18:57:49.829Z,12.23
2022-11-15T19:00:19.649Z,39.00
2022-11-15T19:02:47.918Z,15.37
2022-11-15T19:05:18.740Z,14.20
2022-11-15T19:07:49.594Z,12.30
2022-11-15T19:10:18.103Z,11.70
2022-11-15T19:12:49.393Z,11.73
2022-11-15T19:15:17.914Z,18.43
2022-11-15T19:17:46.415Z,15.80
2022-11-15T19:20:15.145Z,12.77
2022-11-15T19:22:43.521Z,13.73
2022-11-15T19:25:11.980Z,14.10
2022-11-15T19:27:40.520Z,14.47
2022-11-15T19:30:14.015Z,13.63
2022-11-15T19:32:42.405Z,14.93
2022-11-15T19:35:11.030Z,14.87
2022-11-15T19:37:39.432Z,14.87
2022-11-15T19:40:09.031Z,16.13
2022-11-15T19:42:37.466Z,17.60
2022-11-15T19:45:06.247Z,16.83
2022-11-15T19:47:35.851Z,14.30
2022-11-15T19:50:04.142Z,15.43
2022-11-15T19:52:32.466Z,18.97
2022-11-15T19:55:00.899Z,38.00
2022-11-15T19:57:29.219Z,38.20
2022-11-15T19:59:57.556Z,19.73
2022-11-15T20:02:25.867Z,15.10
2022-11-15T20:04:55.729Z,16.70
2022-11-15T20:07:24.017Z,14.17
2022-11-15T20:09:52.504Z,14.40
2022-11-15T20:12:21.114Z,18.97
2022-11-15T20:14:51.563Z,19.47
2022-11-15T20:17:20.005Z,18.20
2022-11-15T20:19:48.643Z,17.37
2022-11-15T20:22:18.405Z,16.00
2022-11-15T20:24:46.685Z,16.13
2022-11-15T20:27:15.196Z,16.93
2022-11-15T20:29:45.141Z,15.50
2022-11-15T20:32:13.553Z,16.40
2022-11-15T20:34:43.370Z,15.50
2022-11-15T20:37:11.905Z,14.87
2022-11-15T20:39:41.670Z,15.27
2022-11-15T20:42:10.049Z,16.17
2022-11-15T20:44:38.351Z,15.43
2022-11-15T20:47:07.216Z,13.97
2022-11-15T20:49:35.457Z,13.57
2022-11-15T20:52:03.888Z,13.53
2022-11-15T20:54:32.162Z,11.73
2022-11-15T20:57:02.084Z,10.97
2022-11-15T20:59:30.383Z,10.17
2022-11-15T21:01:58.854Z,9.87
2022-11-15T21:04:27.478Z,10.50
2022-11-15T21:06:57.992Z,10.57
2022-11-15T21:09:44.020Z,10.47
2022-11-15T21:12:15.409Z,10.37
2022-11-15T21:14:46.489Z,10.63
2022-11-15T21:17:15.129Z,11.10
2022-11-15T21:19:44.074Z,10.47
2022-11-15T21:22:14.992Z,10.87
2022-11-15T21:24:43.491Z,11.07
2022-11-15T21:27:13.181Z,11.67
2022-11-15T21:29:45.643Z,10.97
2022-11-15T21:32:13.902Z,10.37
2022-11-15T21:34:42.238Z,10.07
2022-11-15T21:37:11.017Z,11.03
2022-11-15T21:39:39.711Z,10.70
2022-11-15T21:42:07.948Z,10.87
2022-11-15T21:44:36.226Z,10.83
2022-11-15T21:47:05.851Z,10.87
2022-11-15T21:49:34.091Z,11.23
2022-11-15T21:52:02.317Z,11.63
2022-11-15T21:54:30.636Z,10.87
2022-11-15T21:56:58.976Z,10.83
2022-11-15T21:59:27.219Z,11.80
2022-11-15T22:02:12.959Z,11.10
2022-11-15T22:04:43.119Z,11.50
2022-11-15T22:07:11.809Z,11.83
2022-11-15T22:09:40.283Z,11.20
2022-11-15T22:12:08.536Z,11.80
2022-11-15T22:14:36.806Z,10.67
2022-11-15T22:17:05.288Z,10.97
2022-11-15T22:19:33.551Z,11.13
2022-11-15T22:22:03.217Z,11.93
2022-11-15T22:24:31.758Z,12.23
2022-11-15T22:27:00.257Z,11.73
2022-11-15T22:29:28.763Z,11.80
2022-11-15T22:31:57.050Z,12.60
2022-11-15T22:34:25.379Z,12.40
2022-11-15T22:37:19.229Z,13.07
2022-11-15T22:39:43.285Z,12.97
2022-11-15T22:42:11.586Z,13.17
2022-11-15T22:44:39.928Z,13.93
2022-11-15T22:47:08.312Z,13.73
2022-11-15T22:49:36.620Z,14.93
2022-11-15T22:52:04.991Z,16.20
2022-11-15T22:54:33.355Z,16.97
2022-11-15T22:57:04.121Z,16.77
2022-11-15T22:59:32.731Z,16.57
2022-11-15T23:02:01.066Z,17.00
2022-11-15T23:04:30.017Z,17.70
2022-11-15T23:06:58.521Z,18.40
2022-11-15T23:09:26.929Z,16.83
2022-11-15T23:12:12.499Z,18.20
2022-11-15T23:14:42.254Z,18.40
2022-11-15T23:17:10.646Z,18.83
2022-11-15T23:19:38.985Z,18.50
2022-11-15T23:22:24.810Z,19.83
2022-11-15T23:24:53.626Z,19.00
2022-11-15T23:27:23.972Z,20.67
2022-11-15T23:30:11.210Z,20.63
2022-11-15T23:32:57.128Z,20.83
2022-11-15T23:35:26.004Z,23.60
2022-11-15T23:37:54.269Z,23.17
2022-11-15T23:40:22.563Z,23.80
2022-11-15T23:42:51.001Z,24.07
2022-11-15T23:45:20.971Z,24.57
2022-11-15T23:47:49.231Z,24.57
2022-11-15T23:50:18.164Z,26.70
2022-11-15T23:52:46.402Z,27.27
2022-11-15T23:55:14.861Z,26.23
2022-11-15T23:57:43.257Z,27.13
